Time;durP1;ratioP1;P1;durP2;ratioP2;P2;SDS_P1;SDS_P2;PMS_P1;PMS_P2;Temp;Humidity;BMP_temperature;BMP_pressure;BME280_temperature;BME280_humidity;BME280_pressure;Samples;Min_cycle;Max_cycle;Signal;HPM_P1;HPM_P2
2021/08/04 00:00:59;;;;;;;4.97;2.80;;;16.00;93.00;;;;;;4983871;28;20427;-73
2021/08/04 00:03:25;;;;;;;3.43;2.20;;;16.00;93.10;;;;;;4984350;28;20189;-73
2021/08/04 00:05:51;;;;;;;5.50;2.70;;;15.90;93.40;;;;;;4989442;28;20428;-73
2021/08/04 00:08:17;;;;;;;3.37;2.50;;;15.80;93.70;;;;;;4981006;28;20198;-72
2021/08/04 00:10:42;;;;;;;9.40;2.83;;;15.80;94.00;;;;;;4989858;28;20191;-73
2021/08/04 00:13:08;;;;;;;5.00;2.97;;;15.70;94.10;;;;;;4982120;28;20193;-74
2021/08/04 00:15:34;;;;;;;4.07;2.50;;;15.80;93.90;;;;;;4993952;28;20194;-73
2021/08/04 00:17:59;;;;;;;4.20;2.60;;;15.70;94.10;;;;;;4993249;28;20718;-72
2021/08/04 00:20:25;;;;;;;6.07;2.60;;;15.70;94.10;;;;;;4986430;28;20237;-71
2021/08/04 00:22:51;;;;;;;3.83;2.80;;;15.70;94.10;;;;;;4991319;28;20660;-72
2021/08/04 00:25:16;;;;;;;3.90;2.47;;;15.70;94.10;;;;;;4992499;28;20183;-72
2021/08/04 00:27:42;;;;;;;4.80;2.57;;;15.70;93.90;;;;;;4985273;28;20655;-72
2021/08/04 00:30:08;;;;;;;3.40;2.60;;;15.80;93.30;;;;;;4988516;28;20312;-72
2021/08/04 00:32:34;;;;;;;3.50;2.27;;;15.70;93.10;;;;;;4985707;28;20183;-73
2021/08/04 00:35:00;;;;;;;3.87;2.37;;;15.80;93.20;;;;;;4985401;28;20923;-72
2021/08/04 00:37:26;;;;;;;6.37;2.70;;;15.80;92.50;;;;;;4987075;28;20238;-73
2021/08/04 00:39:51;;;;;;;2.70;2.27;;;15.80;92.30;;;;;;4993170;28;20225;-73
2021/08/04 00:42:18;;;;;;;3.47;2.17;;;15.90;92.00;;;;;;4992185;28;20680;-72
2021/08/04 00:44:45;;;;;;;3.53;2.27;;;15.90;92.20;;;;;;4992354;28;20188;-72
2021/08/04 00:47:10;;;;;;;2.87;2.30;;;15.90;92.30;;;;;;4992717;28;20984;-71
2021/08/04 00:49:38;;;;;;;4.07;2.33;;;15.90;92.10;;;;;;4987982;28;20535;-71
2021/08/04 00:52:04;;;;;;;5.90;2.67;;;15.80;92.10;;;;;;4993033;28;20205;-71
2021/08/04 00:54:30;;;;;;;4.77;2.40;;;15.90;91.60;;;;;;4987442;28;20425;-72
2021/08/04 00:56:55;;;;;;;4.87;2.40;;;15.90;91.40;;;;;;4991320;28;20443;-71
2021/08/04 00:59:21;;;;;;;3.87;2.30;;;15.90;91.30;;;;;;4994234;28;20250;-71
2021/08/04 01:02:00;;;;;;;6.50;2.63;;;15.90;91.10;;;;;;4994287;28;20190;-70
2021/08/04 01:04:57;;;;;;;4.60;2.23;;;15.90;90.90;;;;;;4996410;28;20195;-73
2021/08/04 01:07:27;;;;;;;4.20;2.60;;;16.00;90.60;;;;;;4986409;28;22309;-71
2021/08/04 01:10:05;;;;;;;5.00;2.67;;;16.00;90.50;;;;;;4990908;28;20417;-72
2021/08/04 01:12:42;;;;;;;3.97;2.10;;;16.00;90.10;;;;;;4986585;28;20593;-70
2021/08/04 01:15:09;;;;;;;3.73;2.50;;;16.00;90.10;;;;;;4984971;28;21014;-72
2021/08/04 01:17:39;;;;;;;5.70;2.47;;;16.00;89.60;;;;;;4994549;28;20500;-72
2021/08/04 01:20:19;;;;;;;4.17;2.27;;;16.10;89.60;;;;;;4988157;28;20578;-72
2021/08/04 01:22:50;;;;;;;4.17;2.37;;;16.10;89.20;;;;;;4990022;28;20421;-72
2021/08/04 01:25:18;;;;;;;5.80;2.67;;;16.10;89.50;;;;;;4991863;28;20479;-72
2021/08/04 01:27:50;;;;;;;3.60;2.30;;;16.10;89.50;;;;;;4985891;28;20412;-71
2021/08/04 01:30:18;;;;;;;4.13;2.23;;;16.00;89.70;;;;;;4989343;28;21112;-72
2021/08/04 01:32:44;;;;;;;3.60;2.33;;;16.00;89.70;;;;;;4985795;28;20430;-71
2021/08/04 01:35:10;;;;;;;3.40;2.20;;;16.10;89.70;;;;;;4988595;28;20551;-71
2021/08/04 01:37:38;;;;;;;4.70;2.30;;;16.20;89.00;;;;;;4983573;28;20828;-70
2021/08/04 01:40:07;;;;;;;3.53;1.90;;;16.20;88.90;;;;;;4991947;28;20569;-71
2021/08/04 01:42:37;;;;;;;3.90;2.50;;;16.20;88.70;;;;;;4990838;28;20428;-71
2021/08/04 01:45:05;;;;;;;5.37;2.70;;;16.20;88.10;;;;;;4990964;28;20508;-71
2021/08/04 01:47:32;;;;;;;2.20;1.90;;;16.10;88.00;;;;;;4982239;28;20948;-71
2021/08/04 01:49:58;;;;;;;4.50;2.70;;;16.10;87.80;;;;;;4987318;28;20420;-72
2021/08/04 01:52:25;;;;;;;3.40;2.47;;;16.10;87.70;;;;;;4981075;28;20444;-72
2021/08/04 01:54:52;;;;;;;2.80;1.83;;;16.10;87.80;;;;;;4984980;28;20791;-71
2021/08/04 01:57:18;;;;;;;3.63;2.17;;;16.10;87.70;;;;;;4989615;28;20963;-72
2021/08/04 01:59:44;;;;;;;2.73;2.30;;;16.10;88.00;;;;;;4983511;28;20479;-72
2021/08/04 02:02:21;;;;;;;7.20;2.30;;;16.10;87.80;;;;;;4984926;28;20176;-73
2021/08/04 02:04:47;;;;;;;5.10;2.10;;;16.10;87.60;;;;;;4990123;28;20574;-73
2021/08/04 02:07:21;;;;;;;7.03;2.10;;;16.10;87.60;;;;;;4989727;28;20421;-71
2021/08/04 02:09:51;;;;;;;7.90;2.57;;;16.10;87.60;;;;;;4987994;28;20448;-72
2021/08/04 02:12:18;;;;;;;3.33;2.50;;;16.10;87.40;;;;;;4980703;28;20635;-73
2021/08/04 02:15:06;;;;;;;2.70;2.37;;;16.10;87.40;;;;;;4984588;28;20429;-72
2021/08/04 02:17:37;;;;;;;4.40;2.73;;;16.10;87.30;;;;;;4983211;28;20429;-72
2021/08/04 02:20:26;;;;;;;3.57;1.97;;;16.20;87.00;;;;;;4981012;28;20463;-72
2021/08/04 02:23:01;;;;;;;4.33;2.57;;;16.20;86.90;;;;;;4991422;28;20789;-72
2021/08/04 02:25:47;;;;;;;2.90;2.00;;;16.20;86.90;;;;;;4990667;28;20470;-73
2021/08/04 02:28:19;;;;;;;3.30;2.13;;;16.20;86.60;;;;;;4982408;28;20549;-73
2021/08/04 02:30:47;;;;;;;3.80;2.33;;;16.20;86.50;;;;;;4988976;28;20447;-72
2021/08/04 02:33:13;;;;;;;2.83;2.07;;;16.30;86.30;;;;;;4981412;28;20491;-72
2021/08/04 02:35:38;;;;;;;4.07;2.30;;;16.20;86.60;;;;;;4985654;28;20830;-71
2021/08/04 02:38:04;;;;;;;4.17;2.67;;;16.20;86.60;;;;;;4986245;28;20229;-71
2021/08/04 02:40:30;;;;;;;4.30;2.53;;;16.30;86.20;;;;;;4989534;28;20736;-72
2021/08/04 02:42:57;;;;;;;3.80;2.33;;;16.30;86.30;;;;;;4986315;28;20200;-73
2021/08/04 02:45:23;;;;;;;3.53;2.53;;;16.30;86.50;;;;;;4988934;28;20183;-73
2021/08/04 02:47:49;;;;;;;7.20;2.80;;;16.30;86.30;;;;;;4990136;28;20431;-72
2021/08/04 02:50:16;;;;;;;3.10;2.23;;;16.40;86.30;;;;;;4988971;28;20182;-71
2021/08/04 02:52:42;;;;;;;3.70;2.10;;;16.40;86.30;;;;;;4984454;28;20430;-72
2021/08/04 02:55:09;;;;;;;4.47;2.30;;;16.40;86.30;;;;;;4989999;28;20417;-72
2021/08/04 02:57:35;;;;;;;4.00;2.33;;;16.40;86.80;;;;;;4985855;28;20198;-73
2021/08/04 03:00:01;;;;;;;3.37;2.10;;;16.50;85.60;;;;;;4981130;28;20747;-71
2021/08/04 03:02:26;;;;;;;4.87;2.73;;;16.50;84.10;;;;;;4984710;28;20178;-72
2021/08/04 03:04:52;;;;;;;4.13;2.43;;;16.50;83.80;;;;;;4987012;28;20422;-74
2021/08/04 03:07:18;;;;;;;4.20;2.60;;;16.50;83.60;;;;;;4981899;28;20172;-71
2021/08/04 03:09:44;;;;;;;4.80;2.50;;;16.50;84.00;;;;;;4986353;28;20457;-73
2021/08/04 03:12:10;;;;;;;5.53;2.50;;;16.50;83.80;;;;;;4980174;28;20313;-73
2021/08/04 03:14:36;;;;;;;4.10;2.13;;;16.40;84.40;;;;;;4984126;28;20189;-72
2021/08/04 03:17:01;;;;;;;2.50;2.00;;;16.40;84.30;;;;;;4985487;28;21318;-73
2021/08/04 03:19:27;;;;;;;3.70;1.90;;;16.40;84.10;;;;;;4983468;28;20209;-72
2021/08/04 03:21:53;;;;;;;3.73;2.20;;;16.50;84.60;;;;;;4983204;28;20185;-73
2021/08/04 03:24:19;;;;;;;1.87;1.80;;;16.50;85.00;;;;;;4983810;28;20675;-72
2021/08/04 03:26:44;;;;;;;3.77;2.40;;;16.50;84.90;;;;;;4986275;28;20540;-72
2021/08/04 03:29:10;;;;;;;3.00;2.37;;;16.60;85.00;;;;;;4990189;28;20551;-72
2021/08/04 03:31:36;;;;;;;3.27;2.20;;;16.60;85.30;;;;;;4990315;28;20243;-72
2021/08/04 03:34:02;;;;;;;4.13;2.77;;;16.50;85.70;;;;;;4989731;28;20202;-73
2021/08/04 03:36:28;;;;;;;3.37;2.60;;;16.50;86.30;;;;;;4989740;28;20715;-72
2021/08/04 03:38:54;;;;;;;5.53;3.00;;;16.40;86.60;;;;;;4989746;28;20850;-72
2021/08/04 03:41:21;;;;;;;3.43;2.30;;;16.40;87.10;;;;;;4990083;28;20871;-72
2021/08/04 03:43:46;;;;;;;3.90;2.43;;;16.40;87.60;;;;;;4989385;28;21346;-71
2021/08/04 03:46:12;;;;;;;4.70;2.80;;;16.40;87.80;;;;;;4982499;28;20423;-73
2021/08/04 03:48:38;;;;;;;5.03;2.20;;;16.30;87.80;;;;;;4989259;28;20202;-72
2021/08/04 03:51:04;;;;;;;3.90;2.67;;;16.20;88.70;;;;;;4990394;28;20410;-71
2021/08/04 03:53:30;;;;;;;5.47;2.53;;;16.10;89.20;;;;;;4988065;28;20273;-72
2021/08/04 03:55:56;;;;;;;6.60;2.40;;;16.10;89.50;;;;;;4987859;28;20513;-72
2021/08/04 03:58:22;;;;;;;5.80;2.70;;;16.10;89.50;;;;;;4993136;28;20467;-72
2021/08/04 04:00:48;;;;;;;3.87;2.43;;;16.10;90.00;;;;;;4993564;28;20689;-73
2021/08/04 04:03:14;;;;;;;4.83;2.77;;;16.00;90.20;;;;;;4992520;28;20182;-72
2021/08/04 04:05:39;;;;;;;4.33;2.70;;;15.90;90.20;;;;;;4991787;28;20442;-70
2021/08/04 04:08:05;;;;;;;5.17;2.53;;;15.70;90.60;;;;;;4992776;28;20198;-71
2021/08/04 04:10:31;;;;;;;5.53;2.67;;;15.70;90.80;;;;;;4993744;28;20192;-71
2021/08/04 04:12:57;;;;;;;7.50;2.73;;;15.70;90.80;;;;;;4993415;28;20587;-71
2021/08/04 04:15:22;;;;;;;4.50;2.77;;;15.60;91.00;;;;;;4986889;28;20432;-72
2021/08/04 04:17:48;;;;;;;4.33;2.90;;;15.70;91.10;;;;;;4991132;28;20223;-71
2021/08/04 04:20:14;;;;;;;4.30;2.47;;;15.70;91.10;;;;;;4992352;28;20692;-72
2021/08/04 04:22:44;;;;;;;5.43;2.90;;;15.60;91.30;;;;;;4993078;28;20282;-72
2021/08/04 04:25:15;;;;;;;4.70;2.93;;;15.70;91.50;;;;;;4992471;28;20556;-72
2021/08/04 04:27:42;;;;;;;4.40;2.70;;;15.70;91.40;;;;;;4992552;28;20418;-73
2021/08/04 04:30:08;;;;;;;5.40;2.90;;;15.60;91.50;;;;;;4992984;28;20526;-72
2021/08/04 04:32:34;;;;;;;5.20;2.63;;;15.60;91.60;;;;;;4992939;28;20963;-71
2021/08/04 04:35:00;;;;;;;3.40;2.20;;;15.60;91.70;;;;;;4992974;28;20457;-71
2021/08/04 04:37:26;;;;;;;3.43;2.37;;;15.60;91.90;;;;;;4991849;28;20643;-72
2021/08/04 04:39:51;;;;;;;4.37;2.63;;;15.60;92.00;;;;;;4992671;28;20581;-72
2021/08/04 04:42:17;;;;;;;5.53;3.03;;;15.50;92.10;;;;;;4992860;28;20194;-72
2021/08/04 04:44:43;;;;;;;4.17;2.73;;;15.60;92.40;;;;;;4991724;28;20178;-73
2021/08/04 04:47:09;;;;;;;6.30;2.87;;;15.60;92.00;;;;;;4991576;28;20211;-71
2021/08/04 04:49:34;;;;;;;5.87;3.10;;;15.60;92.00;;;;;;4989314;28;20285;-73
2021/08/04 04:52:00;;;;;;;10.77;2.70;;;15.60;92.10;;;;;;4984610;28;20190;-72
2021/08/04 04:54:26;;;;;;;5.47;2.40;;;15.60;92.00;;;;;;4986537;28;20214;-72
2021/08/04 04:56:51;;;;;;;5.90;2.87;;;15.70;92.10;;;;;;4990361;28;20199;-71
2021/08/04 04:59:17;;;;;;;4.70;2.90;;;15.80;92.00;;;;;;4984620;28;20216;-71
2021/08/04 05:01:43;;;;;;;4.27;2.90;;;15.80;91.60;;;;;;4988771;28;20186;-71
2021/08/04 05:04:08;;;;;;;3.77;2.97;;;15.80;91.70;;;;;;4991072;28;20187;-71
2021/08/04 05:06:35;;;;;;;6.07;3.13;;;15.90;91.50;;;;;;4991372;28;20183;-71
2021/08/04 05:09:02;;;;;;;12.97;3.57;;;16.00;91.30;;;;;;4991474;28;20609;-73
2021/08/04 05:11:28;;;;;;;4.20;2.40;;;16.10;90.80;;;;;;4985535;28;20433;-72
2021/08/04 05:13:53;;;;;;;5.60;2.40;;;16.10;90.60;;;;;;4990854;28;20853;-73
2021/08/04 05:16:19;;;;;;;6.50;3.33;;;16.20;90.30;;;;;;4991362;28;20179;-72
2021/08/04 05:18:45;;;;;;;3.73;2.40;;;16.20;90.10;;;;;;4992722;28;20210;-74
2021/08/04 05:21:11;;;;;;;5.17;3.20;;;16.30;90.00;;;;;;4984517;28;20654;-73
2021/08/04 05:23:37;;;;;;;4.70;2.93;;;16.40;90.00;;;;;;4987154;28;20256;-72
2021/08/04 05:26:03;;;;;;;5.60;2.73;;;16.50;90.00;;;;;;4989448;28;20198;-72
2021/08/04 05:28:29;;;;;;;4.40;2.87;;;16.50;89.50;;;;;;4979431;28;20441;-72
2021/08/04 05:30:55;;;;;;;5.00;3.10;;;16.50;88.90;;;;;;4992031;28;20792;-73
2021/08/04 05:33:20;;;;;;;4.00;2.60;;;16.70;88.40;;;;;;4985780;28;20187;-72
2021/08/04 05:35:46;;;;;;;3.90;2.83;;;16.70;88.30;;;;;;4990317;28;20201;-72
2021/08/04 05:38:12;;;;;;;4.33;2.83;;;16.80;87.80;;;;;;4991523;28;20777;-73
2021/08/04 05:40:38;;;;;;;4.10;2.90;;;17.00;87.30;;;;;;4987986;28;20214;-72
2021/08/04 05:43:03;;;;;;;4.63;2.77;;;17.10;86.20;;;;;;4988794;28;20182;-73
2021/08/04 05:45:30;;;;;;;5.17;2.67;;;17.10;86.00;;;;;;4991613;28;20946;-71
2021/08/04 05:47:56;;;;;;;6.30;2.70;;;17.20;86.00;;;;;;4990927;28;20205;-71
2021/08/04 05:50:23;;;;;;;5.93;2.90;;;17.30;85.60;;;;;;4992658;28;20437;-73
2021/08/04 05:52:50;;;;;;;3.87;2.97;;;17.30;85.30;;;;;;4992209;28;20436;-72
2021/08/04 05:55:16;;;;;;;4.57;2.90;;;17.40;85.00;;;;;;4991107;28;20440;-72
2021/08/04 05:57:43;;;;;;;4.57;2.70;;;17.50;84.30;;;;;;4990316;28;20775;-73
2021/08/04 06:00:09;;;;;;;4.80;3.10;;;17.50;84.40;;;;;;4991750;28;20482;-73
2021/08/04 06:02:35;;;;;;;4.50;2.80;;;17.60;83.10;;;;;;4992137;28;20428;-72
2021/08/04 06:05:01;;;;;;;4.63;2.70;;;17.60;82.10;;;;;;4998726;28;20755;-72
2021/08/04 06:07:27;;;;;;;2.40;2.10;;;17.60;81.90;;;;;;4991873;28;20434;-74
2021/08/04 06:09:52;;;;;;;5.53;2.83;;;17.60;81.50;;;;;;4990078;28;20834;-73
2021/08/04 06:12:18;;;;;;;3.97;2.60;;;17.60;81.40;;;;;;4991211;28;20538;-73
2021/08/04 06:14:44;;;;;;;6.70;2.40;;;17.70;81.20;;;;;;4990743;28;20194;-73
2021/08/04 06:17:09;;;;;;;4.23;2.60;;;17.60;79.90;;;;;;4991288;28;20197;-72
2021/08/04 06:19:35;;;;;;;3.67;2.67;;;17.50;80.90;;;;;;4989814;28;20321;-74
2021/08/04 06:22:01;;;;;;;3.80;2.37;;;17.50;80.90;;;;;;4992136;28;20181;-73
2021/08/04 06:24:27;;;;;;;3.97;2.40;;;17.60;80.90;;;;;;4989251;28;20196;-73
2021/08/04 06:26:54;;;;;;;4.80;2.53;;;17.70;80.30;;;;;;4993509;28;20827;-71
2021/08/04 06:29:21;;;;;;;3.63;2.80;;;17.60;79.60;;;;;;4992668;28;20210;-71
2021/08/04 06:31:47;;;;;;;4.90;2.53;;;17.50;80.20;;;;;;4987653;28;20421;-73
2021/08/04 06:34:13;;;;;;;8.37;3.00;;;17.40;81.40;;;;;;4987381;28;20427;-75
2021/08/04 06:36:39;;;;;;;4.70;3.00;;;17.50;81.20;;;;;;4992403;28;21048;-69
2021/08/04 06:39:04;;;;;;;4.93;2.83;;;17.50;80.00;;;;;;4991749;28;20210;-73
2021/08/04 06:41:30;;;;;;;4.47;2.60;;;17.40;79.90;;;;;;4986996;28;20189;-70
2021/08/04 06:43:56;;;;;;;4.73;2.37;;;17.20;81.40;;;;;;4990551;28;20206;-70
2021/08/04 06:46:22;;;;;;;4.67;2.50;;;17.20;82.40;;;;;;4983758;28;20485;-72
2021/08/04 06:48:47;;;;;;;6.70;3.43;;;17.20;81.50;;;;;;4991082;28;20299;-71
2021/08/04 06:51:16;;;;;;;3.70;2.63;;;17.10;81.40;;;;;;4991171;28;20633;-71
2021/08/04 06:53:42;;;;;;;5.00;2.30;;;17.20;81.20;;;;;;4990600;28;20342;-73
2021/08/04 06:56:08;;;;;;;4.40;2.00;;;17.30;81.10;;;;;;4990969;28;20420;-72
2021/08/04 06:58:34;;;;;;;4.73;2.57;;;17.40;79.90;;;;;;4990953;28;21029;-71
2021/08/04 07:01:00;;;;;;;7.27;2.40;;;17.70;79.00;;;;;;4991085;28;20568;-72
2021/08/04 07:03:25;;;;;;;3.23;2.30;;;17.80;78.60;;;;;;4989608;28;20533;-73
2021/08/04 07:05:52;;;;;;;2.90;1.97;;;17.90;77.60;;;;;;4983540;28;20183;-73
2021/08/04 07:08:19;;;;;;;4.43;2.33;;;17.80;74.50;;;;;;4982246;28;20795;-73
2021/08/04 07:10:46;;;;;;;3.00;2.20;;;17.50;75.20;;;;;;4989142;28;20491;-73
2021/08/04 07:13:12;;;;;;;4.03;2.60;;;17.50;76.70;;;;;;4978027;28;20426;-74
2021/08/04 07:15:38;;;;;;;5.57;2.40;;;17.50;75.90;;;;;;4982588;28;20905;-74
2021/08/04 07:18:09;;;;;;;4.40;2.63;;;17.70;75.20;;;;;;4987705;28;20569;-74
2021/08/04 07:20:35;;;;;;;5.40;2.63;;;17.80;74.90;;;;;;4984387;28;20214;-71
2021/08/04 07:23:00;;;;;;;5.20;2.80;;;17.70;75.20;;;;;;4983807;28;20467;-72
2021/08/04 07:25:26;;;;;;;3.83;1.93;;;17.80;75.20;;;;;;4994091;28;20905;-73
2021/08/04 07:27:52;;;;;;;2.43;1.80;;;17.80;75.20;;;;;;4998077;28;20205;-72
2021/08/04 07:30:18;;;;;;;5.03;2.87;;;17.80;74.80;;;;;;4994960;28;20206;-71
2021/08/04 07:32:43;;;;;;;4.70;2.73;;;17.80;74.30;;;;;;4994508;28;20214;-73
2021/08/04 07:35:09;;;;;;;5.20;3.40;;;17.80;75.20;;;;;;4994902;28;20183;-73
2021/08/04 07:37:36;;;;;;;5.00;3.00;;;17.90;75.70;;;;;;4993917;28;20204;-72
2021/08/04 07:40:05;;;;;;;4.93;2.70;;;18.00;75.70;;;;;;4995249;28;20210;-72
2021/08/04 07:42:31;;;;;;;6.87;3.00;;;18.20;74.30;;;;;;4988530;28;20417;-73
2021/08/04 07:44:56;;;;;;;3.43;2.23;;;18.40;72.70;;;;;;4993090;28;20422;-74
2021/08/04 07:47:22;;;;;;;4.67;2.30;;;18.50;72.00;;;;;;4985543;28;20217;-72
2021/08/04 07:49:48;;;;;;;3.80;2.57;;;18.60;70.70;;;;;;4988505;28;20212;-72
2021/08/04 07:52:14;;;;;;;5.17;2.50;;;18.60;70.80;;;;;;4983396;28;20429;-71
2021/08/04 07:54:40;;;;;;;6.17;2.80;;;18.60;71.00;;;;;;4988094;28;20186;-73
2021/08/04 07:57:07;;;;;;;3.90;2.33;;;18.30;71.80;;;;;;4988743;28;20665;-73
2021/08/04 07:59:33;;;;;;;5.00;2.57;;;18.20;72.00;;;;;;4985693;28;20567;-73
2021/08/04 08:01:58;;;;;;;5.07;2.30;;;18.10;72.40;;;;;;4990715;28;21018;-74
2021/08/04 08:04:24;;;;;;;3.83;2.40;;;18.20;72.90;;;;;;4993019;28;20182;-73
2021/08/04 08:06:50;;;;;;;4.23;2.60;;;18.50;71.60;;;;;;4989126;28;20657;-73
2021/08/04 08:09:21;;;;;;;5.17;2.60;;;18.80;70.50;;;;;;4991746;28;20301;-73
2021/08/04 08:11:48;;;;;;;3.83;2.33;;;19.00;68.80;;;;;;4989592;28;20190;-73
2021/08/04 08:14:14;;;;;;;5.03;2.40;;;19.20;69.20;;;;;;4994185;28;20513;-73
2021/08/04 08:16:39;;;;;;;3.70;2.50;;;19.50;68.20;;;;;;5001967;28;20467;-72
2021/08/04 08:19:05;;;;;;;7.10;3.13;;;19.70;67.30;;;;;;4993027;28;20466;-71
2021/08/04 08:21:32;;;;;;;3.53;2.30;;;19.80;66.90;;;;;;4984712;28;20774;-74
2021/08/04 08:23:57;;;;;;;10.73;4.07;;;19.80;67.20;;;;;;4987999;28;20186;-72
2021/08/04 08:26:23;;;;;;;4.03;2.30;;;19.90;67.90;;;;;;4992896;28;20429;-73
2021/08/04 08:28:49;;;;;;;4.67;2.80;;;19.90;67.20;;;;;;4994703;28;20194;-70
2021/08/04 08:31:15;;;;;;;2.77;2.10;;;19.90;67.00;;;;;;4988952;28;20469;-72
2021/08/04 08:33:41;;;;;;;4.87;2.70;;;19.90;67.00;;;;;;4987021;28;20797;-74
2021/08/04 08:36:06;;;;;;;4.80;2.60;;;19.80;67.30;;;;;;4990776;28;20190;-71
2021/08/04 08:38:32;;;;;;;5.73;2.57;;;19.80;66.40;;;;;;4994307;28;20236;-72
2021/08/04 08:40:58;;;;;;;4.57;2.90;;;19.80;66.70;;;;;;4993599;28;20202;-72
2021/08/04 08:43:24;;;;;;;5.97;3.33;;;19.80;66.70;;;;;;4993021;28;20584;-73
2021/08/04 08:45:52;;;;;;;6.37;3.70;;;19.80;67.20;;;;;;4988098;28;20422;-71
2021/08/04 08:48:18;;;;;;;4.80;2.80;;;19.90;67.30;;;;;;4990281;28;20691;-73
2021/08/04 08:50:48;;;;;;;5.20;2.87;;;20.00;66.60;;;;;;4988199;28;20424;-74
2021/08/04 08:53:13;;;;;;;4.20;2.23;;;20.10;66.00;;;;;;4992741;28;20480;-73
2021/08/04 08:55:40;;;;;;;3.20;2.10;;;20.00;65.60;;;;;;4986052;28;20418;-73
2021/08/04 08:58:07;;;;;;;3.87;2.17;;;20.00;65.60;;;;;;4989171;28;20461;-72
2021/08/04 09:00:33;;;;;;;3.83;2.37;;;19.90;65.80;;;;;;4990586;28;21416;-73
2021/08/04 09:02:59;;;;;;;4.67;2.73;;;20.00;65.60;;;;;;4980447;28;20430;-73
2021/08/04 09:05:25;;;;;;;4.50;2.47;;;20.20;65.80;;;;;;4987528;28;20422;-72
2021/08/04 09:07:51;;;;;;;4.10;2.83;;;20.30;65.10;;;;;;4984930;28;20464;-73
2021/08/04 09:10:33;;;;;;;4.83;2.60;;;20.40;65.40;;;;;;4988397;28;20425;-74
2021/08/04 09:13:01;;;;;;;3.37;2.47;;;20.70;65.00;;;;;;4991359;28;20441;-73
2021/08/04 09:15:41;;;;;;;4.20;2.27;;;20.90;64.20;;;;;;4987330;28;20444;-72
2021/08/04 09:18:08;;;;;;;4.03;2.60;;;21.10;63.40;;;;;;4989557;28;20439;-72
2021/08/04 09:20:52;;;;;;;3.40;2.20;;;21.20;62.90;;;;;;4992960;28;20995;-72
2021/08/04 09:23:19;;;;;;;3.30;2.23;;;21.10;62.50;;;;;;4992629;28;20728;-73
2021/08/04 09:26:04;;;;;;;5.60;2.67;;;21.20;63.40;;;;;;4993163;28;20913;-74
2021/08/04 09:28:31;;;;;;;4.57;2.73;;;21.10;62.90;;;;;;4979997;28;20549;-73
2021/08/04 09:31:03;;;;;;;3.80;2.50;;;21.10;63.70;;;;;;4979214;28;20438;-72
2021/08/04 09:33:38;;;;;;;2.10;1.90;;;21.30;63.40;;;;;;4977592;28;20437;-72
2021/08/04 09:36:04;;;;;;;3.47;2.43;;;21.40;62.50;;;;;;4987041;28;20933;-73
2021/08/04 09:38:30;;;;;;;4.00;2.60;;;21.40;62.60;;;;;;4992671;28;20442;-72
2021/08/04 09:41:18;;;;;;;3.73;2.13;;;21.40;62.60;;;;;;4991558;28;20493;-74
2021/08/04 09:43:48;;;;;;;3.57;2.50;;;21.30;63.40;;;;;;4989542;28;20179;-72
2021/08/04 09:46:26;;;;;;;4.70;2.70;;;21.10;64.40;;;;;;4991523;28;20526;-73
2021/08/04 09:48:52;;;;;;;6.33;2.80;;;21.00;65.30;;;;;;4990094;28;20436;-73
2021/08/04 09:51:19;;;;;;;3.27;2.23;;;20.90;65.00;;;;;;4991958;28;20421;-71
2021/08/04 09:53:49;;;;;;;4.00;2.60;;;20.80;65.30;;;;;;4988143;28;20410;-73
2021/08/04 09:56:22;;;;;;;4.07;2.50;;;20.60;66.30;;;;;;4990669;28;20418;-74
2021/08/04 09:58:50;;;;;;;5.60;2.90;;;20.60;66.30;;;;;;4992371;28;20814;-72
2021/08/04 10:01:20;;;;;;;4.10;2.67;;;20.60;66.10;;;;;;4989315;28;20410;-74
2021/08/04 10:04:04;;;;;;;5.67;2.87;;;20.60;66.30;;;;;;4983447;28;20979;-72
2021/08/04 10:06:30;;;;;;;5.30;2.60;;;20.50;65.60;;;;;;4988933;28;20422;-71
2021/08/04 10:09:03;;;;;;;5.30;3.00;;;20.50;65.40;;;;;;4985444;28;20427;-73
2021/08/04 10:11:29;;;;;;;3.67;2.53;;;20.50;65.30;;;;;;4992075;28;20422;-73
2021/08/04 10:13:57;;;;;;;4.20;2.60;;;20.60;65.10;;;;;;4991423;28;20497;-72
2021/08/04 10:16:24;;;;;;;4.83;2.60;;;20.60;65.60;;;;;;4989849;28;20425;-74
2021/08/04 10:18:52;;;;;;;7.30;2.90;;;20.60;66.10;;;;;;4991453;28;20476;-71
2021/08/04 10:21:20;;;;;;;6.23;3.07;;;20.60;65.70;;;;;;4991418;28;20434;-73
2021/08/04 10:23:49;;;;;;;7.23;3.27;;;20.50;66.00;;;;;;4990289;28;20819;-73
2021/08/04 10:26:16;;;;;;;5.80;2.60;;;20.50;66.10;;;;;;4989522;28;20430;-72
2021/08/04 10:28:43;;;;;;;3.17;2.50;;;20.60;66.00;;;;;;4987363;28;20437;-72
2021/08/04 10:31:11;;;;;;;4.83;2.63;;;20.50;66.30;;;;;;4987524;28;20419;-72
2021/08/04 10:33:41;;;;;;;5.90;2.90;;;20.70;66.40;;;;;;4993394;28;20418;-73
2021/08/04 10:36:13;;;;;;;7.33;3.10;;;20.80;64.80;;;;;;4985967;28;20430;-73
2021/08/04 10:38:50;;;;;;;5.87;2.90;;;20.90;64.70;;;;;;4994003;28;20453;-73
2021/08/04 10:41:17;;;;;;;4.00;2.63;;;20.90;64.40;;;;;;4986420;28;20427;-74
2021/08/04 10:43:49;;;;;;;4.20;2.30;;;21.10;64.70;;;;;;4991371;28;20497;-73
2021/08/04 10:46:32;;;;;;;4.10;2.50;;;21.30;64.40;;;;;;4995508;28;20778;-72
2021/08/04 10:49:11;;;;;;;5.53;2.63;;;21.60;62.60;;;;;;4989963;28;20468;-73
2021/08/04 10:51:43;;;;;;;5.47;2.60;;;21.70;62.90;;;;;;4987707;28;20419;-73
2021/08/04 10:54:14;;;;;;;4.03;3.10;;;21.60;61.90;;;;;;4983870;28;20491;-72
2021/08/04 10:56:43;;;;;;;5.40;2.70;;;21.30;62.20;;;;;;4995621;28;20930;-72
2021/08/04 10:59:09;;;;;;;5.20;2.70;;;21.40;63.50;;;;;;4989260;28;20540;-72
2021/08/04 11:01:44;;;;;;;5.87;2.30;;;21.90;61.90;;;;;;4989455;28;20558;-73
2021/08/04 11:04:15;;;;;;;4.50;2.87;;;22.20;60.60;;;;;;4986486;28;20274;-72
2021/08/04 11:07:07;;;;;;;4.87;2.80;;;22.40;60.10;;;;;;4990516;28;20451;-73
2021/08/04 11:09:34;;;;;;;5.03;2.70;;;22.10;61.00;;;;;;4978775;28;20466;-74
2021/08/04 11:12:02;;;;;;;5.70;3.20;;;21.40;63.10;;;;;;4987217;28;20434;-74
2021/08/04 11:14:54;;;;;;;5.70;3.03;;;21.40;63.20;;;;;;4985816;28;20447;-74
2021/08/04 11:17:24;;;;;;;7.13;2.97;;;21.40;63.20;;;;;;4980339;28;20916;-72
2021/08/04 11:20:03;;;;;;;4.97;2.87;;;21.30;63.50;;;;;;4984016;28;20881;-73
2021/08/04 11:22:34;;;;;;;5.20;2.90;;;21.30;63.90;;;;;;4985795;28;20454;-73
2021/08/04 11:25:25;;;;;;;3.90;2.93;;;21.50;63.20;;;;;;4986498;28;20431;-74
2021/08/04 11:27:53;;;;;;;4.70;2.63;;;21.60;62.60;;;;;;4983424;28;20977;-73
2021/08/04 11:30:53;;;;;;;4.77;3.10;;;21.80;62.30;;;;;;4989105;28;20843;-74
2021/08/04 11:33:19;;;;;;;4.30;3.00;;;21.80;62.00;;;;;;4990961;28;20800;-73
2021/08/04 11:35:46;;;;;;;3.90;2.80;;;22.10;61.60;;;;;;4986690;28;21070;-73
2021/08/04 11:38:12;;;;;;;3.83;2.90;;;22.20;61.20;;;;;;4987730;28;20228;-75
2021/08/04 11:40:38;;;;;;;5.00;2.70;;;22.50;60.70;;;;;;4990518;28;20548;-74
2021/08/04 11:43:03;;;;;;;4.83;2.27;;;22.50;60.70;;;;;;4990776;28;20851;-73
2021/08/04 11:45:29;;;;;;;3.63;2.43;;;22.80;59.50;;;;;;4989073;28;20193;-73
2021/08/04 11:47:55;;;;;;;4.00;2.70;;;23.00;58.20;;;;;;4989271;28;20557;-74
2021/08/04 11:50:21;;;;;;;3.77;2.17;;;23.30;58.40;;;;;;4985089;28;20466;-73
2021/08/04 11:52:48;;;;;;;5.37;2.40;;;23.50;57.80;;;;;;4992279;28;20194;-74
2021/08/04 11:55:15;;;;;;;4.23;2.43;;;23.60;57.00;;;;;;4992928;28;20724;-73
2021/08/04 11:57:43;;;;;;;4.37;2.53;;;23.70;57.00;;;;;;4988271;28;20983;-73
2021/08/04 12:00:18;;;;;;;2.50;2.20;;;23.80;56.10;;;;;;4985853;28;20487;-74
2021/08/04 12:02:45;;;;;;;3.13;2.10;;;23.90;55.60;;;;;;4991845;28;20811;-71
2021/08/04 12:05:15;;;;;;;3.00;2.20;;;23.90;55.20;;;;;;4991258;28;20429;-72
2021/08/04 12:07:42;;;;;;;5.30;2.30;;;23.70;55.80;;;;;;4991746;28;20422;-70
2021/08/04 12:10:13;;;;;;;5.10;2.97;;;23.40;56.20;;;;;;4994575;28;20460;-72
2021/08/04 12:12:44;;;;;;;3.33;2.17;;;23.40;56.80;;;;;;4987861;28;20467;-71
2021/08/04 12:15:22;;;;;;;5.40;2.67;;;23.60;57.40;;;;;;4986342;28;20415;-73
2021/08/04 12:17:50;;;;;;;2.70;2.03;;;23.80;56.20;;;;;;4991524;28;20407;-72
2021/08/04 12:20:21;;;;;;;3.53;1.90;;;23.80;55.80;;;;;;4985018;28;20505;-73
2021/08/04 12:22:59;;;;;;;3.20;2.20;;;23.90;56.00;;;;;;4988745;28;20429;-73
2021/08/04 12:25:25;;;;;;;4.37;2.53;;;24.00;55.40;;;;;;4991128;28;20440;-72
2021/08/04 12:27:54;;;;;;;2.50;1.87;;;23.70;55.70;;;;;;4985924;28;20488;-72
2021/08/04 12:30:30;;;;;;;5.33;2.40;;;23.20;56.40;;;;;;4991240;28;20789;-72
2021/08/04 12:33:45;;;;;;;3.00;2.30;;;23.00;57.00;;;;;;4986685;28;20428;-71
2021/08/04 12:36:46;;;;;;;2.87;1.97;;;22.90;57.60;;;;;;4984985;28;20488;-72
2021/08/04 12:38:56;;;;;;;3.33;2.43;;;22.90;57.40;;;;;;4986305;28;20456;-72
2021/08/04 12:41:25;;;;;;;5.37;2.40;;;23.10;57.40;;;;;;4991489;28;20432;-71
2021/08/04 12:43:56;;;;;;;3.00;1.93;;;22.70;58.90;;;;;;4990558;28;20424;-72
2021/08/04 12:46:30;;;;;;;2.50;2.03;;;22.30;59.50;;;;;;4985601;28;20425;-70
2021/08/04 12:48:57;;;;;;;4.43;2.40;;;22.40;61.00;;;;;;4990864;28;20542;-72
2021/08/04 12:51:23;;;;;;;1.80;1.50;;;22.50;59.60;;;;;;4992422;28;20431;-73